createdAt,value
2018-07-26T00:00:12.053Z,24.40
2018-07-26T00:01:12.083Z,24.38
2018-07-26T00:02:12.105Z,24.36
2018-07-26T00:03:12.133Z,24.32
2018-07-26T00:04:12.157Z,24.40
2018-07-26T00:05:12.185Z,24.38
2018-07-26T00:06:12.213Z,24.33
2018-07-26T00:07:12.239Z,24.35
2018-07-26T00:08:12.263Z,24.42
2018-07-26T00:09:12.294Z,24.35
2018-07-26T00:10:12.316Z,24.35
2018-07-26T00:11:12.344Z,24.40
2018-07-26T00:12:12.372Z,24.38
2018-07-26T00:13:12.395Z,24.23
2018-07-26T00:14:12.425Z,24.36
2018-07-26T00:15:12.449Z,24.33
2018-07-26T00:16:12.474Z,24.32
2018-07-26T00:17:12.500Z,24.26
2018-07-26T00:18:12.528Z,24.32
2018-07-26T00:19:12.553Z,24.29
2018-07-26T00:20:12.582Z,24.24
2018-07-26T00:21:12.608Z,24.20
2018-07-26T00:22:12.637Z,24.26
2018-07-26T00:23:12.661Z,24.18
2018-07-26T00:24:12.693Z,24.21
2018-07-26T00:25:13.066Z,24.14
2018-07-26T00:26:12.744Z,24.24
2018-07-26T00:27:12.767Z,24.14
2018-07-26T00:28:13.042Z,24.05
2018-07-26T00:29:12.817Z,24.05
2018-07-26T00:30:12.844Z,24.06
2018-07-26T00:31:13.069Z,24.01
2018-07-26T00:32:12.895Z,24.01
2018-07-26T00:33:12.922Z,24.08
2018-07-26T00:34:13.048Z,24.01
2018-07-26T00:35:12.975Z,24.06
2018-07-26T00:36:13.004Z,24.10
2018-07-26T00:37:13.027Z,24.13
2018-07-26T00:38:13.055Z,24.01
2018-07-26T00:39:13.080Z,24.01
2018-07-26T00:40:13.107Z,23.98
2018-07-26T00:41:13.152Z,23.96
2018-07-26T00:42:13.159Z,23.93
2018-07-26T00:43:13.187Z,23.93
2018-07-26T00:44:13.211Z,23.95
2018-07-26T00:45:13.243Z,23.87
2018-07-26T00:46:13.264Z,23.88
2018-07-26T00:47:13.288Z,23.86
2018-07-26T00:48:13.318Z,23.86
2018-07-26T00:49:13.341Z,23.76
2018-07-26T00:50:13.370Z,23.78
2018-07-26T00:51:13.392Z,23.73
2018-07-26T00:52:13.419Z,23.81
2018-07-26T00:53:13.445Z,23.77
2018-07-26T00:54:13.471Z,23.69
2018-07-26T00:55:13.500Z,23.69
2018-07-26T00:56:13.524Z,23.78
2018-07-26T00:57:13.550Z,23.77
2018-07-26T00:58:13.579Z,23.78
2018-07-26T00:59:13.601Z,23.78
2018-07-26T01:00:13.629Z,23.78
2018-07-26T01:01:13.655Z,23.76
2018-07-26T01:02:13.682Z,23.71
2018-07-26T01:03:13.706Z,23.74
2018-07-26T01:04:13.735Z,23.62
2018-07-26T01:05:13.758Z,23.68
2018-07-26T01:06:13.793Z,23.63
2018-07-26T01:07:13.816Z,23.58
2018-07-26T01:08:13.837Z,23.63
2018-07-26T01:09:13.863Z,23.56
2018-07-26T01:10:13.890Z,23.56
2018-07-26T01:11:13.916Z,23.55
2018-07-26T01:12:13.941Z,23.50
2018-07-26T01:13:13.969Z,23.46
2018-07-26T01:14:13.995Z,23.51
2018-07-26T01:15:14.017Z,23.50
2018-07-26T01:16:14.043Z,23.44
2018-07-26T01:17:14.081Z,23.46
2018-07-26T01:18:14.096Z,23.46
2018-07-26T01:19:14.120Z,23.50
2018-07-26T01:20:14.148Z,23.46
2018-07-26T01:21:14.175Z,23.44
2018-07-26T01:22:14.200Z,23.39
2018-07-26T01:23:14.228Z,23.40
2018-07-26T01:24:14.252Z,23.40
2018-07-26T01:25:14.277Z,23.40
2018-07-26T01:26:14.301Z,23.43
2018-07-26T01:27:14.327Z,23.41
2018-07-26T01:28:14.352Z,23.41
2018-07-26T01:29:14.378Z,23.40
2018-07-26T01:30:14.408Z,23.44
2018-07-26T01:31:14.433Z,23.40
2018-07-26T01:32:14.460Z,23.37
2018-07-26T01:33:14.484Z,23.43
2018-07-26T01:34:14.508Z,23.28
2018-07-26T01:35:14.534Z,23.32
2018-07-26T01:36:14.560Z,23.36
2018-07-26T01:37:14.584Z,23.32
2018-07-26T01:38:14.612Z,23.31
2018-07-26T01:39:14.635Z,23.36
2018-07-26T01:40:14.661Z,23.31
2018-07-26T01:41:14.689Z,23.28
2018-07-26T01:42:14.713Z,23.34
2018-07-26T01:43:14.737Z,23.39
2018-07-26T01:44:14.764Z,23.20
2018-07-26T01:45:14.790Z,23.28
2018-07-26T01:46:14.816Z,23.32
2018-07-26T01:47:14.844Z,23.24
2018-07-26T01:48:14.870Z,23.25
2018-07-26T01:49:14.894Z,23.23
2018-07-26T01:50:14.922Z,23.23
2018-07-26T01:51:14.945Z,23.18
2018-07-26T01:52:14.973Z,23.21
2018-07-26T01:53:15.000Z,23.23
2018-07-26T01:54:15.029Z,23.20
2018-07-26T01:55:15.049Z,23.15
2018-07-26T01:56:15.072Z,23.20
2018-07-26T01:57:15.099Z,23.12
2018-07-26T01:58:15.124Z,23.10
2018-07-26T01:59:15.154Z,23.13
2018-07-26T02:00:15.178Z,23.09
2018-07-26T02:01:15.201Z,23.08
2018-07-26T02:02:15.230Z,23.10
2018-07-26T02:03:15.255Z,23.12
2018-07-26T02:04:15.279Z,23.12
2018-07-26T02:05:15.306Z,23.05
2018-07-26T02:06:15.333Z,23.10
2018-07-26T02:07:15.358Z,23.08
2018-07-26T02:08:15.380Z,23.10
2018-07-26T02:09:15.408Z,23.12
2018-07-26T02:10:15.432Z,23.10
2018-07-26T02:11:15.459Z,23.13
2018-07-26T02:12:15.484Z,23.10
2018-07-26T02:13:15.508Z,23.10
2018-07-26T02:14:15.535Z,23.18
2018-07-26T02:15:15.559Z,23.10
2018-07-26T02:16:15.586Z,23.08
2018-07-26T02:17:15.613Z,23.15
2018-07-26T02:18:15.637Z,23.09
2018-07-26T02:19:15.661Z,23.12
2018-07-26T02:20:15.691Z,23.10
2018-07-26T02:21:15.716Z,23.09
2018-07-26T02:22:15.739Z,23.09
2018-07-26T02:23:15.764Z,23.08
2018-07-26T02:24:15.791Z,23.09
2018-07-26T02:25:15.819Z,23.12
2018-07-26T02:26:15.844Z,23.09
2018-07-26T02:27:15.868Z,23.12
2018-07-26T02:28:15.892Z,23.03
2018-07-26T02:29:15.921Z,23.00
2018-07-26T02:30:15.949Z,22.96
2018-07-26T02:31:15.969Z,22.99
2018-07-26T02:32:15.999Z,22.98
2018-07-26T02:33:16.023Z,23.06
2018-07-26T02:34:16.046Z,23.00
2018-07-26T02:35:16.071Z,22.96
2018-07-26T02:36:16.098Z,22.99
2018-07-26T02:37:16.122Z,22.94
2018-07-26T02:38:16.148Z,23.00
2018-07-26T02:39:16.173Z,22.96
2018-07-26T02:40:16.198Z,22.93
2018-07-26T02:41:16.227Z,22.90
2018-07-26T02:42:16.257Z,22.90
2018-07-26T02:43:16.276Z,22.87
2018-07-26T02:44:16.303Z,22.85
2018-07-26T02:45:16.329Z,22.90
2018-07-26T02:46:16.352Z,22.85
2018-07-26T02:47:16.380Z,22.87
2018-07-26T02:48:16.407Z,22.87
2018-07-26T02:49:16.430Z,22.84
2018-07-26T02:50:16.459Z,22.84
2018-07-26T02:51:16.482Z,22.87
2018-07-26T02:52:16.507Z,22.88
2018-07-26T02:53:16.574Z,22.88
2018-07-26T02:54:16.559Z,22.83
2018-07-26T02:55:16.583Z,22.84
2018-07-26T02:56:16.610Z,22.81
2018-07-26T02:57:16.633Z,22.84
2018-07-26T02:58:16.661Z,22.85
2018-07-26T02:59:16.684Z,22.87
2018-07-26T03:00:16.712Z,22.81
2018-07-26T03:01:16.736Z,22.78
2018-07-26T03:02:16.759Z,22.85
2018-07-26T03:03:16.786Z,22.90
2018-07-26T03:04:16.813Z,22.85
2018-07-26T03:05:16.837Z,22.85
2018-07-26T03:06:16.862Z,22.93
2018-07-26T03:07:16.917Z,22.85
2018-07-26T03:08:16.917Z,22.85
2018-07-26T03:09:16.937Z,22.88
2018-07-26T03:10:16.967Z,22.83
2018-07-26T03:11:16.992Z,22.84
2018-07-26T03:12:17.064Z,22.84
2018-07-26T03:13:17.043Z,22.87
2018-07-26T03:14:17.067Z,22.83
2018-07-26T03:15:17.089Z,22.90
2018-07-26T03:16:17.117Z,22.87
2018-07-26T03:17:17.141Z,22.84
2018-07-26T03:18:17.172Z,22.83
2018-07-26T03:19:17.192Z,22.80
2018-07-26T03:20:17.219Z,22.83
2018-07-26T03:21:17.243Z,22.84
2018-07-26T03:22:17.272Z,22.87
2018-07-26T03:23:17.301Z,22.84
2018-07-26T03:24:17.319Z,22.85
2018-07-26T03:25:17.348Z,22.88
2018-07-26T03:26:17.374Z,22.93
2018-07-26T03:27:17.398Z,22.99
2018-07-26T03:28:17.425Z,22.99
2018-07-26T03:29:17.451Z,22.99
2018-07-26T03:30:17.476Z,22.96
2018-07-26T03:31:17.501Z,22.99
2018-07-26T03:32:17.524Z,23.00
2018-07-26T03:33:17.552Z,22.99
2018-07-26T03:34:17.579Z,22.98
2018-07-26T03:35:17.600Z,22.96
2018-07-26T03:36:17.627Z,23.02
2018-07-26T03:37:17.662Z,22.99
2018-07-26T03:38:17.678Z,23.02
2018-07-26T03:39:17.702Z,22.96
2018-07-26T03:40:17.728Z,22.98
2018-07-26T03:41:17.754Z,23.00
2018-07-26T03:42:17.781Z,22.91
2018-07-26T03:43:17.806Z,23.02
2018-07-26T03:44:17.832Z,23.05
2018-07-26T03:45:17.855Z,23.03
2018-07-26T03:46:17.882Z,23.08
2018-07-26T03:47:17.912Z,23.06
2018-07-26T03:48:17.932Z,23.03
2018-07-26T03:49:17.959Z,23.12
2018-07-26T03:50:17.987Z,22.99
2018-07-26T03:51:18.124Z,23.08
2018-07-26T03:52:18.039Z,23.08
2018-07-26T03:53:18.064Z,23.12
2018-07-26T03:54:18.089Z,23.06
2018-07-26T03:55:18.113Z,23.06
2018-07-26T03:56:18.144Z,23.12
2018-07-26T03:57:18.163Z,23.03
2018-07-26T03:58:18.193Z,22.91
2018-07-26T03:59:18.217Z,23.02
2018-07-26T04:00:18.243Z,22.96
2018-07-26T04:01:18.269Z,22.99
2018-07-26T04:02:18.291Z,22.96
2018-07-26T04:03:18.333Z,22.98
2018-07-26T04:04:18.343Z,23.09
2018-07-26T04:05:18.368Z,23.05
2018-07-26T04:06:18.397Z,23.09
2018-07-26T04:07:18.422Z,22.99
2018-07-26T04:08:18.445Z,22.96
2018-07-26T04:09:18.472Z,22.94
2018-07-26T04:10:18.498Z,22.98
2018-07-26T04:11:18.526Z,22.99
2018-07-26T04:12:18.548Z,23.02
2018-07-26T04:13:18.579Z,23.08
2018-07-26T04:14:18.599Z,23.00
2018-07-26T04:15:18.624Z,23.05
2018-07-26T04:16:18.653Z,23.10
2018-07-26T04:17:18.675Z,23.09
2018-07-26T04:18:18.706Z,23.09
2018-07-26T04:19:18.730Z,23.21
2018-07-26T04:20:18.756Z,23.08
2018-07-26T04:21:18.781Z,23.15
2018-07-26T04:22:18.804Z,23.18
2018-07-26T04:23:18.832Z,23.15
2018-07-26T04:24:18.858Z,23.21
2018-07-26T04:25:18.886Z,23.23
2018-07-26T04:26:18.910Z,23.23
2018-07-26T04:27:18.934Z,23.23
2018-07-26T04:28:18.960Z,23.17
2018-07-26T04:29:18.984Z,23.23
2018-07-26T04:30:19.013Z,23.27
2018-07-26T04:31:19.034Z,23.24
2018-07-26T04:32:19.064Z,23.27
2018-07-26T04:33:19.089Z,23.34
2018-07-26T04:34:19.112Z,23.32
2018-07-26T04:35:19.140Z,23.36
2018-07-26T04:36:19.166Z,23.28
2018-07-26T04:37:19.192Z,23.41
2018-07-26T04:38:19.218Z,23.40
2018-07-26T04:39:19.239Z,23.41
2018-07-26T04:40:19.266Z,23.43
2018-07-26T04:41:19.296Z,23.48
2018-07-26T04:42:19.321Z,23.41
2018-07-26T04:43:19.347Z,23.46
2018-07-26T04:44:19.373Z,23.55
2018-07-26T04:45:19.399Z,23.54
2018-07-26T04:46:19.425Z,23.58
2018-07-26T04:47:19.449Z,23.63
2018-07-26T04:48:19.474Z,23.71
2018-07-26T04:49:19.500Z,23.65
2018-07-26T04:50:19.528Z,23.66
2018-07-26T04:51:19.551Z,23.68
2018-07-26T04:52:19.582Z,23.73
2018-07-26T04:53:19.603Z,23.74
2018-07-26T04:54:19.633Z,23.81
2018-07-26T04:55:19.654Z,23.87
2018-07-26T04:56:19.680Z,24.02
2018-07-26T04:57:19.711Z,24.01
2018-07-26T04:58:19.733Z,24.08
2018-07-26T04:59:19.758Z,24.08
2018-07-26T05:00:19.789Z,24.23
2018-07-26T05:01:19.814Z,24.16
2018-07-26T05:02:19.837Z,24.24
2018-07-26T05:03:19.864Z,24.30
2018-07-26T05:04:19.889Z,24.28
2018-07-26T05:05:19.915Z,24.13
2018-07-26T05:06:19.941Z,24.28
2018-07-26T05:07:19.968Z,24.30
2018-07-26T05:08:19.996Z,24.28
2018-07-26T05:09:20.025Z,24.36
2018-07-26T05:10:20.047Z,24.39
2018-07-26T05:11:20.073Z,24.39
2018-07-26T05:12:20.099Z,24.42
2018-07-26T05:13:20.128Z,24.40
2018-07-26T05:14:20.151Z,24.38
2018-07-26T05:15:20.180Z,24.43
2018-07-26T05:16:20.203Z,24.40
2018-07-26T05:17:20.234Z,24.38
2018-07-26T05:18:20.280Z,24.47
2018-07-26T05:19:20.283Z,24.40
2018-07-26T05:20:20.311Z,24.51
2018-07-26T05:21:20.339Z,24.50
2018-07-26T05:22:20.365Z,24.47
2018-07-26T05:23:20.393Z,24.55
2018-07-26T05:24:20.415Z,24.39
2018-07-26T05:25:20.444Z,24.38
2018-07-26T05:26:20.474Z,24.42
2018-07-26T05:27:20.494Z,24.47
2018-07-26T05:28:20.526Z,24.53
2018-07-26T05:29:20.550Z,24.58
2018-07-26T05:30:20.576Z,24.60
2018-07-26T05:31:20.605Z,24.69
2018-07-26T05:32:20.632Z,24.65
2018-07-26T05:33:20.658Z,24.63
2018-07-26T05:34:20.681Z,24.69
2018-07-26T05:35:20.707Z,24.73
2018-07-26T05:36:20.734Z,24.66
2018-07-26T05:37:20.764Z,24.70
2018-07-26T05:38:20.791Z,24.68
2018-07-26T05:39:20.815Z,24.58
2018-07-26T05:40:20.842Z,24.61
2018-07-26T05:41:20.870Z,24.51
2018-07-26T05:42:20.895Z,24.54
2018-07-26T05:43:20.922Z,24.54
2018-07-26T05:44:20.947Z,24.38
2018-07-26T05:45:20.977Z,24.38
2018-07-26T05:46:21.056Z,24.35
2018-07-26T05:47:21.030Z,24.43
2018-07-26T05:48:21.055Z,24.48
2018-07-26T05:49:21.083Z,24.39
2018-07-26T05:50:21.107Z,24.48
2018-07-26T05:51:21.133Z,24.54
2018-07-26T05:52:21.163Z,24.61
2018-07-26T05:53:21.318Z,24.66
2018-07-26T05:54:21.214Z,24.61
2018-07-26T05:55:21.239Z,24.65
2018-07-26T05:56:21.266Z,24.70
2018-07-26T05:57:21.293Z,24.74
2018-07-26T05:58:21.319Z,24.84
2018-07-26T05:59:21.346Z,24.78
2018-07-26T06:00:21.372Z,24.66
2018-07-26T06:01:21.400Z,24.85
2018-07-26T06:02:21.426Z,24.89
2018-07-26T06:03:21.455Z,24.89
2018-07-26T06:04:21.482Z,24.85
2018-07-26T06:05:21.508Z,24.73
2018-07-26T06:06:21.536Z,24.74
2018-07-26T06:07:21.558Z,24.85
2018-07-26T06:08:21.590Z,24.85
2018-07-26T06:09:21.615Z,24.96
2018-07-26T06:10:21.642Z,24.92
2018-07-26T06:11:21.668Z,25.04
2018-07-26T06:12:21.698Z,25.06
2018-07-26T06:13:21.720Z,25.08
2018-07-26T06:14:21.755Z,25.08
2018-07-26T06:15:21.775Z,25.07
2018-07-26T06:16:21.802Z,25.04
2018-07-26T06:17:21.829Z,25.16
2018-07-26T06:18:21.856Z,25.11
2018-07-26T06:19:21.881Z,25.13
2018-07-26T06:20:21.909Z,25.07
2018-07-26T06:21:21.937Z,25.08
2018-07-26T06:22:21.965Z,25.08
2018-07-26T06:23:21.990Z,25.13
2018-07-26T06:24:22.019Z,25.25
2018-07-26T06:25:22.044Z,25.32
2018-07-26T06:26:22.070Z,25.41
2018-07-26T06:27:22.095Z,25.40
2018-07-26T06:28:22.195Z,25.53
2018-07-26T06:29:22.149Z,25.46
2018-07-26T06:30:22.177Z,25.51
2018-07-26T06:31:22.206Z,25.59
2018-07-26T06:32:22.230Z,25.47
2018-07-26T06:33:22.269Z,25.54
2018-07-26T06:34:22.287Z,25.51
2018-07-26T06:35:22.314Z,25.60
2018-07-26T06:36:22.346Z,25.59
2018-07-26T06:37:22.368Z,25.60
2018-07-26T06:38:22.397Z,25.69
2018-07-26T06:39:22.474Z,25.65
2018-07-26T06:40:22.449Z,25.63
2018-07-26T06:41:22.476Z,25.68
2018-07-26T06:42:22.506Z,25.66
2018-07-26T06:43:22.533Z,25.53
2018-07-26T06:44:22.561Z,25.58
2018-07-26T06:45:22.588Z,25.44
2018-07-26T06:46:22.616Z,25.59
2018-07-26T06:47:22.641Z,25.58
2018-07-26T06:48:22.668Z,25.59
2018-07-26T06:49:22.696Z,25.54
2018-07-26T06:50:22.726Z,25.63
2018-07-26T06:51:22.752Z,25.63
2018-07-26T06:52:22.779Z,25.69
2018-07-26T06:53:22.807Z,25.77
2018-07-26T06:54:22.832Z,25.85
2018-07-26T06:55:22.862Z,25.93
2018-07-26T06:56:22.887Z,25.90
2018-07-26T06:57:22.919Z,25.96
2018-07-26T06:58:22.944Z,25.85
2018-07-26T06:59:22.968Z,25.93
2018-07-26T07:00:23.003Z,25.88
2018-07-26T07:01:23.027Z,25.88
2018-07-26T07:02:23.052Z,25.90
2018-07-26T07:03:23.078Z,25.99
2018-07-26T07:04:23.110Z,26.02
2018-07-26T07:05:23.137Z,25.96
2018-07-26T07:06:23.168Z,25.93
2018-07-26T07:07:23.190Z,26.07
2018-07-26T07:08:23.219Z,25.99
2018-07-26T07:09:23.247Z,26.10
2018-07-26T07:10:23.273Z,26.03
2018-07-26T07:11:23.300Z,26.02
2018-07-26T07:12:23.331Z,26.06
2018-07-26T07:13:23.356Z,26.18
2018-07-26T07:14:23.390Z,26.15
2018-07-26T07:15:23.412Z,26.26
2018-07-26T07:16:23.438Z,26.23
2018-07-26T07:17:23.470Z,26.31
2018-07-26T07:18:23.497Z,26.23
2018-07-26T07:19:23.522Z,26.28
2018-07-26T07:20:23.559Z,26.28
2018-07-26T07:21:23.578Z,26.29
2018-07-26T07:22:23.605Z,26.36
2018-07-26T07:23:23.634Z,26.45
2018-07-26T07:24:23.666Z,26.65
2018-07-26T07:25:23.692Z,26.88
2018-07-26T07:26:23.717Z,26.96
2018-07-26T07:27:23.745Z,27.20
2018-07-26T07:28:23.773Z,27.49
2018-07-26T07:29:23.803Z,27.58
2018-07-26T07:30:23.831Z,27.78
2018-07-26T07:31:23.862Z,27.75
2018-07-26T07:32:23.886Z,27.83
2018-07-26T07:33:23.918Z,28.01
2018-07-26T07:34:23.943Z,27.92
2018-07-26T07:35:23.978Z,27.93
2018-07-26T07:36:24.002Z,27.98
2018-07-26T07:37:24.031Z,28.04
2018-07-26T07:38:24.060Z,28.10
2018-07-26T07:39:24.087Z,28.07
2018-07-26T07:40:24.118Z,28.07
2018-07-26T07:41:24.169Z,28.22
2018-07-26T07:42:24.175Z,28.27
2018-07-26T07:43:24.201Z,28.29
2018-07-26T07:44:24.233Z,28.20
2018-07-26T07:45:24.265Z,28.02
2018-07-26T07:46:24.290Z,28.26
2018-07-26T07:47:24.384Z,28.23
2018-07-26T07:48:24.352Z,28.33
2018-07-26T07:49:24.381Z,28.33
2018-07-26T07:50:24.410Z,28.56
2018-07-26T07:51:24.439Z,28.70
2018-07-26T07:52:24.469Z,28.81
2018-07-26T07:53:24.499Z,28.78
2018-07-26T07:54:24.526Z,28.69
2018-07-26T07:55:24.556Z,28.88
2018-07-26T07:56:24.586Z,28.91
2018-07-26T07:57:24.616Z,28.94
2018-07-26T07:58:24.647Z,28.91
2018-07-26T07:59:24.694Z,28.89
2018-07-26T08:00:24.705Z,29.04
2018-07-26T08:01:24.738Z,29.16
2018-07-26T08:02:24.767Z,29.26
2018-07-26T08:03:24.793Z,29.35
2018-07-26T08:04:24.825Z,29.38
2018-07-26T08:05:24.888Z,29.27
2018-07-26T08:06:24.953Z,29.44
2018-07-26T08:07:24.918Z,29.54
2018-07-26T08:08:24.945Z,29.47
2018-07-26T08:09:24.971Z,29.66
2018-07-26T08:10:25.005Z,29.68
2018-07-26T08:11:25.034Z,29.90
2018-07-26T08:12:25.064Z,30.08
2018-07-26T08:13:25.091Z,30.15
2018-07-26T08:14:25.125Z,30.28
2018-07-26T08:15:25.158Z,30.28
2018-07-26T08:16:25.181Z,30.48
2018-07-26T08:17:25.210Z,30.43
2018-07-26T08:18:25.243Z,30.44
2018-07-26T08:19:25.274Z,30.40
2018-07-26T08:20:25.301Z,30.30
2018-07-26T08:21:25.391Z,30.34
2018-07-26T08:22:25.359Z,30.40
2018-07-26T08:23:25.390Z,30.55
2018-07-26T08:24:25.419Z,30.63
2018-07-26T08:25:25.450Z,30.77
2018-07-26T08:26:25.478Z,30.80
2018-07-26T08:27:25.507Z,30.85
2018-07-26T08:28:25.540Z,30.88
2018-07-26T08:29:25.684Z,30.96
2018-07-26T08:30:25.600Z,30.99
2018-07-26T08:31:25.630Z,31.12
2018-07-26T08:32:25.660Z,31.24
2018-07-26T08:33:25.691Z,31.22
2018-07-26T08:34:25.722Z,31.09
2018-07-26T08:35:25.763Z,31.25
2018-07-26T08:36:25.780Z,31.18
2018-07-26T08:37:25.810Z,31.27
2018-07-26T08:38:25.842Z,31.28
2018-07-26T08:39:25.870Z,31.36
2018-07-26T08:40:25.899Z,31.37
2018-07-26T08:41:25.933Z,31.42
2018-07-26T08:42:25.960Z,31.44
2018-07-26T08:43:25.991Z,31.42
2018-07-26T08:44:26.021Z,31.44
2018-07-26T08:45:26.054Z,31.46
2018-07-26T08:46:26.084Z,31.33
2018-07-26T08:47:26.112Z,31.55
2018-07-26T08:48:26.145Z,31.64
2018-07-26T08:49:26.176Z,31.78
2018-07-26T08:50:26.204Z,31.73
2018-07-26T08:51:26.236Z,31.99
2018-07-26T08:52:26.265Z,32.08
2018-07-26T08:53:26.295Z,32.16
2018-07-26T08:54:26.330Z,32.22
2018-07-26T08:55:26.355Z,32.43
2018-07-26T08:56:26.385Z,32.48
2018-07-26T08:57:26.417Z,32.53
2018-07-26T08:58:26.448Z,32.68
2018-07-26T08:59:26.480Z,32.65
2018-07-26T09:00:26.507Z,32.63
2018-07-26T09:01:26.545Z,32.67
2018-07-26T09:02:26.572Z,32.64
2018-07-26T09:03:26.600Z,32.77
2018-07-26T09:04:26.630Z,32.64
2018-07-26T09:05:26.661Z,32.75
2018-07-26T09:06:26.695Z,32.92
2018-07-26T09:07:26.724Z,33.00
2018-07-26T09:08:26.758Z,33.00
2018-07-26T09:09:26.784Z,32.74
2018-07-26T09:10:26.818Z,32.64
2018-07-26T09:11:26.879Z,32.74
2018-07-26T09:12:26.882Z,32.75
2018-07-26T09:13:26.944Z,32.63
2018-07-26T09:14:26.940Z,32.65
2018-07-26T09:15:26.970Z,32.70
2018-07-26T09:16:26.998Z,32.68
2018-07-26T09:17:27.033Z,32.80
2018-07-26T09:18:27.062Z,33.01
2018-07-26T09:19:27.094Z,33.04
2018-07-26T09:20:27.126Z,33.17
2018-07-26T09:21:27.153Z,33.15
2018-07-26T09:22:27.188Z,33.07
2018-07-26T09:23:27.216Z,33.14
2018-07-26T09:24:27.284Z,33.40
2018-07-26T09:25:27.279Z,33.32
2018-07-26T09:26:27.308Z,33.37
2018-07-26T09:27:27.438Z,33.36
2018-07-26T09:28:27.372Z,33.52
2018-07-26T09:29:27.402Z,33.57
2018-07-26T09:30:27.432Z,33.55
2018-07-26T09:31:27.465Z,33.67
2018-07-26T09:32:27.493Z,33.71
2018-07-26T09:33:27.525Z,33.64
2018-07-26T09:34:27.559Z,33.45
2018-07-26T09:35:27.657Z,33.39
2018-07-26T09:36:27.620Z,33.50
2018-07-26T09:37:27.652Z,33.40
2018-07-26T09:38:27.682Z,33.09
2018-07-26T09:39:27.712Z,33.15
2018-07-26T09:40:27.753Z,33.12
2018-07-26T09:41:27.774Z,33.34
2018-07-26T09:42:27.808Z,33.36
2018-07-26T09:43:27.837Z,33.55
2018-07-26T09:44:27.870Z,33.53
2018-07-26T09:45:27.898Z,33.64
2018-07-26T09:46:27.932Z,33.68
2018-07-26T09:47:28.050Z,33.64
2018-07-26T09:48:27.992Z,33.84
2018-07-26T09:49:28.023Z,33.87
2018-07-26T09:50:28.059Z,33.90
2018-07-26T09:51:28.096Z,33.99
2018-07-26T09:52:28.116Z,34.01
2018-07-26T09:53:28.149Z,34.02
2018-07-26T09:54:28.181Z,33.96
2018-07-26T09:55:28.212Z,33.99
2018-07-26T09:56:28.266Z,33.96
2018-07-26T09:57:28.273Z,34.02
2018-07-26T09:58:28.305Z,34.05
2018-07-26T09:59:28.335Z,34.08
2018-07-26T10:00:28.421Z,33.99
2018-07-26T10:01:28.402Z,34.03
2018-07-26T10:02:28.434Z,34.06
2018-07-26T10:03:28.466Z,34.17
2018-07-26T10:04:28.493Z,34.18
2018-07-26T10:05:28.529Z,34.23
2018-07-26T10:06:28.559Z,34.02
2018-07-26T10:07:28.587Z,34.05
2018-07-26T10:08:28.618Z,34.08
2018-07-26T10:09:28.650Z,34.14
2018-07-26T10:10:28.684Z,33.94
2018-07-26T10:11:28.713Z,33.83
2018-07-26T10:12:28.746Z,33.83
2018-07-26T10:13:28.779Z,33.99
2018-07-26T10:14:28.813Z,33.87
2018-07-26T10:15:28.841Z,33.95
2018-07-26T10:16:28.872Z,33.89
2018-07-26T10:17:28.905Z,34.02
2018-07-26T10:18:28.933Z,34.13
2018-07-26T10:19:28.967Z,34.24
2018-07-26T10:20:29.003Z,34.25
2018-07-26T10:21:29.029Z,34.32
2018-07-26T10:22:29.059Z,34.30
2018-07-26T10:23:29.095Z,34.35
2018-07-26T10:24:29.123Z,34.48
2018-07-26T10:25:29.154Z,34.35
2018-07-26T10:26:29.186Z,34.11
2018-07-26T10:27:29.219Z,33.95
2018-07-26T10:28:29.247Z,34.02
2018-07-26T10:29:29.286Z,34.17
2018-07-26T10:30:29.315Z,34.29
2018-07-26T10:31:29.343Z,34.42
2018-07-26T10:32:29.377Z,34.42
2018-07-26T10:33:29.415Z,34.38
2018-07-26T10:34:29.437Z,34.33
2018-07-26T10:35:29.468Z,34.36
2018-07-26T10:36:29.501Z,34.33
2018-07-26T10:37:29.530Z,34.35
2018-07-26T10:38:29.565Z,34.16
2018-07-26T10:39:29.597Z,34.01
2018-07-26T10:40:29.632Z,34.18
2018-07-26T10:41:29.660Z,34.33
2018-07-26T10:42:29.692Z,34.40
2018-07-26T10:43:29.723Z,34.57
2018-07-26T10:44:29.772Z,34.52
2018-07-26T10:45:29.784Z,34.58
2018-07-26T10:46:29.816Z,34.57
2018-07-26T10:47:29.846Z,34.18
2018-07-26T10:48:29.879Z,34.05
2018-07-26T10:49:29.911Z,34.10
2018-07-26T10:50:29.942Z,34.17
2018-07-26T10:51:29.976Z,34.11
2018-07-26T10:52:30.008Z,34.16
2018-07-26T10:53:30.037Z,34.01
2018-07-26T10:54:30.073Z,34.10
2018-07-26T10:55:30.102Z,34.01
2018-07-26T10:56:30.134Z,34.03
2018-07-26T10:57:30.165Z,33.96
2018-07-26T10:58:30.195Z,34.08
2018-07-26T10:59:30.226Z,34.16
2018-07-26T11:00:30.262Z,34.36
2018-07-26T11:01:30.293Z,34.54
2018-07-26T11:02:30.322Z,34.55
2018-07-26T11:03:30.358Z,34.38
2018-07-26T11:04:30.385Z,34.25
2018-07-26T11:05:30.418Z,34.29
2018-07-26T11:06:30.453Z,34.18
2018-07-26T11:07:30.480Z,34.27
2018-07-26T11:08:30.514Z,34.27
2018-07-26T11:09:30.559Z,34.24
2018-07-26T11:10:30.577Z,34.21
2018-07-26T11:11:30.606Z,34.17
2018-07-26T11:12:30.637Z,34.05
2018-07-26T11:13:30.669Z,34.02
2018-07-26T11:14:30.702Z,34.06
2018-07-26T11:15:30.734Z,34.03
2018-07-26T11:16:30.826Z,34.03
2018-07-26T11:17:30.795Z,34.20
2018-07-26T11:18:30.828Z,34.25
2018-07-26T11:19:30.858Z,34.21
2018-07-26T11:20:30.894Z,34.18
2018-07-26T11:21:30.925Z,34.20
2018-07-26T11:22:31.020Z,34.25
2018-07-26T11:23:30.988Z,34.29
2018-07-26T11:24:31.018Z,34.36
2018-07-26T11:25:31.120Z,34.42
2018-07-26T11:26:31.080Z,34.61
2018-07-26T11:27:31.113Z,34.70
2018-07-26T11:28:31.143Z,34.83
2018-07-26T11:29:31.179Z,34.88
2018-07-26T11:30:31.209Z,34.80
2018-07-26T11:31:31.238Z,34.88
2018-07-26T11:32:31.280Z,34.83
2018-07-26T11:33:31.301Z,34.83
2018-07-26T11:34:31.333Z,34.78
2018-07-26T11:35:31.364Z,34.86
2018-07-26T11:36:31.396Z,34.97
2018-07-26T11:37:31.427Z,34.99
2018-07-26T11:38:31.460Z,34.83
2018-07-26T11:39:31.491Z,34.74
2018-07-26T11:40:31.525Z,34.61
2018-07-26T11:41:31.572Z,34.52
2018-07-26T11:42:31.587Z,34.55
2018-07-26T11:43:31.624Z,34.60
2018-07-26T11:44:31.653Z,34.62
2018-07-26T11:45:31.684Z,34.85
2018-07-26T11:46:31.715Z,34.78
2018-07-26T11:47:31.745Z,34.80
2018-07-26T11:48:31.777Z,34.77
2018-07-26T11:49:31.809Z,34.78
2018-07-26T11:50:31.841Z,34.81
2018-07-26T11:51:31.875Z,34.88
2018-07-26T11:52:31.908Z,34.99
2018-07-26T11:53:31.939Z,34.96
2018-07-26T11:54:31.975Z,35.02
2018-07-26T11:55:32.003Z,35.11
2018-07-26T11:56:32.032Z,35.02
2018-07-26T11:57:32.064Z,35.07
2018-07-26T11:58:32.097Z,35.12
2018-07-26T11:59:32.130Z,35.17
2018-07-26T12:00:32.360Z,35.08
2018-07-26T12:01:32.235Z,34.95
2018-07-26T12:02:32.285Z,34.97
2018-07-26T12:03:32.257Z,35.00
2018-07-26T12:04:32.289Z,35.08
2018-07-26T12:05:32.324Z,34.90
2018-07-26T12:06:32.369Z,34.80
2018-07-26T12:07:32.382Z,34.80
2018-07-26T12:08:32.414Z,34.88
2018-07-26T12:09:32.502Z,34.90
2018-07-26T12:10:32.480Z,34.99
2018-07-26T12:11:32.509Z,35.04
2018-07-26T12:12:32.541Z,35.02
2018-07-26T12:13:32.576Z,35.07
2018-07-26T12:14:32.611Z,35.27
2018-07-26T12:15:32.637Z,35.10
2018-07-26T12:16:32.669Z,35.00
2018-07-26T12:17:32.725Z,35.11
2018-07-26T12:18:32.737Z,35.00
2018-07-26T12:19:32.771Z,34.93
2018-07-26T12:20:32.801Z,35.08
2018-07-26T12:21:32.831Z,35.00
2018-07-26T12:22:32.863Z,35.04
2018-07-26T12:23:32.899Z,35.12
2018-07-26T12:24:32.925Z,35.10
2018-07-26T12:25:32.958Z,35.23
2018-07-26T12:26:32.989Z,35.30
2018-07-26T12:27:33.323Z,35.26
2018-07-26T12:28:33.054Z,35.15
2018-07-26T12:29:33.085Z,35.02
2018-07-26T12:30:33.118Z,34.93
2018-07-26T12:31:33.151Z,34.92
2018-07-26T12:32:33.183Z,34.96
2018-07-26T12:33:33.220Z,35.08
2018-07-26T12:34:33.249Z,35.05
2018-07-26T12:35:33.279Z,35.02
2018-07-26T12:36:33.313Z,35.00
2018-07-26T12:37:33.342Z,35.02
2018-07-26T12:38:33.374Z,34.89
2018-07-26T12:39:33.408Z,34.99
2018-07-26T12:40:33.440Z,35.04
2018-07-26T12:41:33.473Z,35.07
2018-07-26T12:42:33.503Z,35.04
2018-07-26T12:43:33.597Z,34.96
2018-07-26T12:44:33.565Z,35.11
2018-07-26T12:45:33.600Z,35.08
2018-07-26T12:46:33.630Z,35.11
2018-07-26T12:47:33.698Z,35.23
2018-07-26T12:48:33.693Z,35.26
2018-07-26T12:49:33.727Z,35.31
2018-07-26T12:50:33.758Z,35.53
2018-07-26T12:51:33.790Z,35.51
2018-07-26T12:52:33.824Z,35.48